Time;durP1;ratioP1;P1;durP2;ratioP2;P2;SDS_P1;SDS_P2;PMS_P1;PMS_P2;Temp;Humidity;BMP_temperature;BMP_pressure;BME280_temperature;BME280_humidity;BME280_pressure;Samples;Min_cycle;Max_cycle;Signal;HPM_P1;HPM_P2
2022/02/09 00:02:26;;;;;;;7.55;6.03;;;9.50;99.90;;;;;;5053466;28;20547;-82
2022/02/09 00:05:42;;;;;;;6.93;6.10;;;9.60;99.90;;;;;;5054363;28;20602;-82
2022/02/09 00:07:53;;;;;;;6.28;5.65;;;9.50;99.90;;;;;;5047856;28;20221;-83
2022/02/09 00:10:19;;;;;;;6.15;5.50;;;9.40;99.90;;;;;;5053468;28;20213;-82
2022/02/09 00:20:53;;;;;;;6.67;4.80;;;9.40;99.90;;;;;;5053158;28;20202;-82
2022/02/09 00:36:38;;;;;;;8.17;6.57;;;9.20;99.90;;;;;;5052306;28;20246;-80
2022/02/09 01:11:40;;;;;;;6.30;5.70;;;9.10;99.90;;;;;;5054302;28;20220;-79
2022/02/09 01:38:58;;;;;;;8.70;7.45;;;9.30;99.90;;;;;;5053484;28;20395;-82
2022/02/09 01:55:43;;;;;;;12.32;8.75;;;9.40;99.90;;;;;;5053592;28;20228;-77
2022/02/09 01:58:09;;;;;;;8.95;8.07;;;9.40;99.90;;;;;;5053126;28;20185;-78
2022/02/09 02:00:35;;;;;;;8.80;7.37;;;9.30;99.90;;;;;;5052759;28;20639;-78
2022/02/09 02:03:00;;;;;;;7.53;6.73;;;9.40;99.90;;;;;;5053317;28;20177;-78
2022/02/09 02:05:26;;;;;;;8.67;6.93;;;9.30;99.90;;;;;;5053574;28;20431;-78
2022/02/09 02:07:56;;;;;;;8.20;6.57;;;9.40;99.90;;;;;;5053268;28;20592;-81
2022/02/09 02:10:31;;;;;;;8.40;7.00;;;9.30;99.90;;;;;;5052239;28;20644;-81
2022/02/09 02:15:54;;;;;;;8.18;6.68;;;9.30;99.90;;;;;;5052575;28;20217;-79
2022/02/09 02:18:13;;;;;;;8.57;6.68;;;9.40;99.90;;;;;;5052163;28;20515;-78
2022/02/09 02:39:22;;;;;;;7.55;6.57;;;9.40;99.90;;;;;;5055412;28;20185;-79
2022/02/09 03:11:16;;;;;;;9.10;5.57;;;9.30;99.90;;;;;;5018201;28;1082211;-78
2022/02/09 03:13:52;;;;;;;5.35;4.85;;;9.40;99.90;;;;;;5055414;28;20424;-80
2022/02/09 03:16:28;;;;;;;5.53;4.60;;;9.40;99.90;;;;;;5056454;28;20170;-79
2022/02/09 03:24:11;;;;;;;4.57;4.18;;;9.40;99.90;;;;;;5056465;28;20169;-79
2022/02/09 03:53:58;;;;;;;3.83;3.40;;;9.40;99.90;;;;;;5055315;28;20174;-81
2022/02/09 03:56:27;;;;;;;5.40;3.90;;;9.40;99.90;;;;;;5054699;28;20200;-81
2022/02/09 03:58:54;;;;;;;5.68;4.47;;;9.30;99.90;;;;;;5055132;28;20174;-79
2022/02/09 04:01:21;;;;;;;6.50;4.07;;;9.40;99.90;;;;;;5055370;28;20178;-83
2022/02/09 04:03:47;;;;;;;8.15;4.35;;;9.40;99.90;;;;;;5055315;28;20179;-79
2022/02/09 04:06:13;;;;;;;6.17;4.43;;;9.40;99.90;;;;;;5055381;28;20197;-77
2022/02/09 04:08:47;;;;;;;7.88;4.85;;;9.40;99.90;;;;;;5054844;28;20204;-79
2022/02/09 04:11:22;;;;;;;6.38;4.32;;;9.40;99.90;;;;;;5055298;28;20190;-78
2022/02/09 04:13:59;;;;;;;7.63;4.88;;;9.30;99.90;;;;;;5054429;28;20688;-80
2022/02/09 04:19:08;;;;;;;10.27;5.50;;;9.20;99.90;;;;;;5054737;28;20571;-78
2022/02/09 04:48:27;;;;;;;5.73;4.17;;;9.40;99.90;;;;;;5054330;28;20674;-80
2022/02/09 04:53:24;;;;;;;9.70;4.30;;;9.40;99.90;;;;;;5054548;28;20799;-78
2022/02/09 04:58:33;;;;;;;4.23;3.77;;;9.50;99.90;;;;;;5053505;28;20182;-80
2022/02/09 05:04:02;;;;;;;5.57;3.45;;;9.50;99.90;;;;;;5053609;28;20202;-79
2022/02/09 05:21:14;;;;;;;6.53;4.97;;;9.20;99.90;;;;;;5053807;28;20232;-81
2022/02/09 05:25:45;;;;;;;6.07;4.30;;;9.20;99.90;;;;;;5054164;28;20189;-80
2022/02/09 05:30:40;;;;;;;6.15;5.38;;;9.30;99.90;;;;;;5053569;28;20263;-81
2022/02/09 05:33:06;;;;;;;7.65;4.93;;;9.30;99.90;;;;;;5053921;28;20182;-81
2022/02/09 05:35:32;;;;;;;7.63;5.27;;;8.90;99.90;;;;;;5053708;28;20588;-79
2022/02/09 05:37:58;;;;;;;6.60;5.27;;;9.30;99.90;;;;;;5053805;28;20405;-80
2022/02/09 05:40:24;;;;;;;6.55;5.47;;;9.20;99.90;;;;;;5053112;28;20663;-81
2022/02/09 05:42:50;;;;;;;6.88;4.60;;;9.30;99.90;;;;;;5053637;28;20180;-81
2022/02/09 05:45:17;;;;;;;5.18;4.35;;;9.30;99.90;;;;;;5053493;28;20170;-79
2022/02/09 05:57:54;;;;;;;5.80;4.35;;;9.30;99.90;;;;;;5053516;28;20177;-80
2022/02/09 06:00:20;;;;;;;4.97;4.18;;;9.30;99.90;;;;;;5052796;28;20207;-82
2022/02/09 06:02:46;;;;;;;4.90;4.13;;;9.40;99.90;;;;;;5052053;28;20873;-82
2022/02/09 06:05:13;;;;;;;4.65;3.90;;;9.30;99.90;;;;;;5053387;28;20190;-82
2022/02/09 06:07:40;;;;;;;6.63;4.53;;;9.30;99.90;;;;;;5053159;28;20205;-80
2022/02/09 06:10:14;;;;;;;7.25;4.85;;;9.40;99.90;;;;;;5052474;28;20210;-78
2022/02/09 06:12:48;;;;;;;4.45;4.05;;;9.30;99.90;;;;;;5053026;28;20181;-80
2022/02/09 06:20:26;;;;;;;4.95;3.33;;;9.40;99.90;;;;;;5052914;28;20570;-79
2022/02/09 06:22:52;;;;;;;7.13;4.73;;;9.50;99.90;;;;;;5053179;28;20174;-78
2022/02/09 06:25:18;;;;;;;4.27;3.77;;;9.50;99.90;;;;;;5051677;28;20417;-78
2022/02/09 06:27:43;;;;;;;4.40;3.87;;;9.50;99.90;;;;;;5052977;28;20655;-78
2022/02/09 06:30:09;;;;;;;5.53;4.00;;;9.40;99.90;;;;;;5052604;28;20202;-78
2022/02/09 06:32:35;;;;;;;8.80;4.75;;;9.40;99.90;;;;;;5051769;28;20192;-79
2022/02/09 06:35:01;;;;;;;6.17;3.60;;;9.40;99.90;;;;;;5052887;28;20186;-81
2022/02/09 06:37:39;;;;;;;4.13;3.72;;;9.40;99.90;;;;;;5052876;28;20186;-82
2022/02/09 06:40:05;;;;;;;6.28;4.22;;;9.40;99.90;;;;;;5052650;28;20190;-79
2022/02/09 06:42:31;;;;;;;5.32;3.53;;;9.40;99.90;;;;;;5052775;28;20546;-78
2022/02/09 06:45:04;;;;;;;4.03;3.60;;;9.40;99.90;;;;;;5052805;28;20630;-82
2022/02/09 06:47:30;;;;;;;7.40;4.07;;;9.50;99.90;;;;;;5052779;28;20201;-78
2022/02/09 06:50:06;;;;;;;6.17;4.00;;;9.50;99.90;;;;;;5052425;28;20202;-79
2022/02/09 06:52:32;;;;;;;3.50;3.03;;;9.60;99.90;;;;;;5052789;28;20201;-78
2022/02/09 06:55:15;;;;;;;5.50;3.97;;;9.50;99.90;;;;;;5052591;28;20198;-80
2022/02/09 07:00:20;;;;;;;7.53;4.28;;;9.40;99.90;;;;;;5052307;28;20251;-80
2022/02/09 07:02:46;;;;;;;4.47;3.92;;;9.50;99.90;;;;;;5052595;28;20189;-78
2022/02/09 07:05:12;;;;;;;4.95;4.35;;;9.50;99.90;;;;;;5052882;28;20550;-81
2022/02/09 07:07:38;;;;;;;5.40;4.03;;;9.50;99.90;;;;;;5052806;28;20219;-80
2022/02/09 07:10:05;;;;;;;5.03;4.05;;;9.50;99.90;;;;;;5052354;28;20597;-78
2022/02/09 07:12:32;;;;;;;4.05;3.53;;;9.50;99.90;;;;;;5052544;28;20179;-78
2022/02/09 07:14:57;;;;;;;5.38;4.07;;;9.60;99.90;;;;;;5051172;28;20193;-79
2022/02/09 07:17:23;;;;;;;5.17;4.10;;;9.60;99.90;;;;;;5052640;28;20182;-79
2022/02/09 07:20:06;;;;;;;11.27;4.30;;;9.60;99.90;;;;;;5052232;28;20332;-81
2022/02/09 07:22:35;;;;;;;4.82;3.70;;;9.60;99.90;;;;;;5054897;28;20287;-85
2022/02/09 07:28:00;;;;;;;6.88;3.42;;;9.60;99.90;;;;;;5032325;28;20301;-84
2022/02/09 07:30:27;;;;;;;5.35;4.07;;;9.60;99.90;;;;;;5054389;28;20255;-83
2022/02/09 07:33:01;;;;;;;4.20;3.80;;;9.60;99.90;;;;;;5054932;28;20635;-83
2022/02/09 07:35:28;;;;;;;4.10;3.65;;;9.60;99.90;;;;;;5055914;28;20614;-79
2022/02/09 07:37:54;;;;;;;6.07;4.05;;;9.60;99.90;;;;;;5056091;28;20541;-82
2022/02/09 07:40:20;;;;;;;6.80;3.50;;;9.50;99.90;;;;;;5055491;28;20202;-81
2022/02/09 07:42:56;;;;;;;4.40;3.28;;;9.50;99.90;;;;;;5055868;28;20183;-80
2022/02/09 07:45:45;;;;;;;10.77;3.88;;;9.60;99.90;;;;;;5055777;28;20181;-80
2022/02/09 07:50:50;;;;;;;5.03;3.20;;;9.50;99.90;;;;;;5055513;28;20288;-81
2022/02/09 07:55:47;;;;;;;5.00;2.83;;;9.50;99.90;;;;;;5055876;28;20178;-78
2022/02/09 07:58:13;;;;;;;4.90;3.37;;;9.50;99.90;;;;;;5055554;28;20189;-80
2022/02/09 08:00:39;;;;;;;4.67;3.63;;;9.40;99.90;;;;;;5055187;28;20229;-80
2022/02/09 08:03:05;;;;;;;3.40;3.07;;;9.30;99.90;;;;;;5048028;28;20174;-81
2022/02/09 08:05:31;;;;;;;7.03;2.90;;;9.30;99.90;;;;;;5047293;28;20425;-84
2022/02/09 08:07:57;;;;;;;9.60;3.67;;;9.30;99.90;;;;;;5035611;28;20722;-81
2022/02/09 08:10:46;;;;;;;4.50;3.00;;;9.30;99.90;;;;;;5035008;28;20218;-81
2022/02/09 08:23:09;;;;;;;4.20;3.00;;;9.40;99.90;;;;;;4991802;28;20198;-77
2022/02/09 08:29:41;;;;;;;6.25;2.95;;;9.30;99.90;;;;;;5013962;28;20226;-79
2022/02/09 08:34:37;;;;;;;3.67;3.10;;;9.40;99.90;;;;;;5036692;28;20187;-80
2022/02/09 08:37:04;;;;;;;6.00;2.75;;;9.40;99.90;;;;;;5034917;28;20578;-80
2022/02/09 08:39:30;;;;;;;4.43;2.75;;;9.40;99.90;;;;;;5034455;28;20206;-79
2022/02/09 08:41:55;;;;;;;3.43;2.77;;;9.40;99.90;;;;;;5034788;28;20183;-80
2022/02/09 08:44:21;;;;;;;3.10;2.70;;;9.40;99.90;;;;;;5034966;28;20198;-79
2022/02/09 08:46:47;;;;;;;4.53;3.13;;;9.40;99.90;;;;;;5038681;28;20186;-81
2022/02/09 08:49:13;;;;;;;3.13;2.78;;;9.50;99.90;;;;;;5054171;28;20621;-80
2022/02/09 08:51:40;;;;;;;5.00;3.87;;;9.30;99.90;;;;;;5054120;28;20206;-80
2022/02/09 08:54:07;;;;;;;5.75;3.22;;;9.10;99.90;;;;;;5043191;28;20422;-78
2022/02/09 08:56:33;;;;;;;6.05;3.13;;;9.00;99.90;;;;;;5040001;28;20191;-79
2022/02/09 08:59:00;;;;;;;4.20;3.57;;;9.10;99.90;;;;;;5034856;28;20540;-80
2022/02/09 09:01:39;;;;;;;5.22;3.60;;;9.20;99.90;;;;;;5035734;28;20441;-80
2022/02/09 09:04:16;;;;;;;6.85;3.92;;;9.10;99.90;;;;;;5034469;28;20270;-78
2022/02/09 09:06:44;;;;;;;4.43;3.97;;;9.20;99.90;;;;;;5034351;28;20203;-79
2022/02/09 09:09:42;;;;;;;4.65;4.07;;;9.10;99.90;;;;;;5039133;28;20206;-80
2022/02/09 09:17:34;;;;;;;8.07;4.50;;;8.90;99.90;;;;;;5054320;28;20548;-79
2022/02/09 10:34:02;;;;;;;7.22;4.38;;;9.40;99.90;;;;;;5053452;28;20170;-82
2022/02/09 10:36:28;;;;;;;6.20;3.97;;;9.40;99.90;;;;;;5052976;28;20220;-80
2022/02/09 10:39:07;;;;;;;7.10;4.63;;;9.30;99.90;;;;;;5052633;28;20178;-81
2022/02/09 10:41:40;;;;;;;11.18;4.60;;;9.40;99.90;;;;;;5053120;28;20174;-80
2022/02/09 10:44:08;;;;;;;7.82;4.47;;;9.50;99.90;;;;;;5052707;28;20269;-82
2022/02/09 10:46:59;;;;;;;8.32;3.88;;;9.60;99.90;;;;;;5052782;28;20534;-78
2022/02/09 10:49:30;;;;;;;8.90;4.53;;;9.50;99.90;;;;;;5052314;28;20242;-80
2022/02/09 10:54:26;;;;;;;7.90;3.20;;;9.60;99.90;;;;;;5052895;28;20179;-81
2022/02/09 10:56:55;;;;;;;7.90;2.78;;;9.60;99.90;;;;;;5054120;28;20210;-82
2022/02/09 10:59:22;;;;;;;11.27;3.78;;;9.60;99.90;;;;;;5056334;28;20216;-80
2022/02/09 11:01:49;;;;;;;5.60;2.60;;;9.70;99.90;;;;;;5056535;28;20572;-81
2022/02/09 11:04:16;;;;;;;5.18;2.80;;;9.60;99.90;;;;;;5056531;28;20205;-79
2022/02/09 11:06:45;;;;;;;4.53;3.08;;;9.60;99.90;;;;;;5056419;28;20550;-81
2022/02/09 11:09:13;;;;;;;12.23;3.47;;;9.60;99.90;;;;;;5055870;28;20285;-80
2022/02/09 11:11:41;;;;;;;5.90;3.17;;;9.70;99.90;;;;;;5056519;28;20166;-80
2022/02/09 11:14:14;;;;;;;5.65;3.75;;;9.80;99.90;;;;;;5056463;28;20174;-79
2022/02/09 11:16:43;;;;;;;5.30;3.17;;;9.80;99.90;;;;;;5056553;28;20164;-80
2022/02/09 11:19:10;;;;;;;10.02;3.40;;;9.90;99.90;;;;;;5056193;28;20211;-81
2022/02/09 11:21:38;;;;;;;4.40;2.83;;;10.00;99.90;;;;;;5056484;28;20286;-81
2022/02/09 11:24:26;;;;;;;7.68;3.90;;;10.10;99.90;;;;;;5056261;28;20184;-81
2022/02/09 11:27:09;;;;;;;7.50;3.40;;;10.10;99.90;;;;;;5056231;28;20175;-80
2022/02/09 11:30:01;;;;;;;9.32;3.53;;;10.10;99.90;;;;;;5055687;28;20255;-81
2022/02/09 11:35:10;;;;;;;5.78;2.92;;;10.20;99.90;;;;;;5056286;28;20186;-79
2022/02/09 11:40:45;;;;;;;6.57;3.47;;;10.20;99.90;;;;;;5045390;28;20258;-79
2022/02/09 11:46:17;;;;;;;4.75;2.83;;;10.20;99.90;;;;;;5055987;28;20197;-79
2022/02/09 12:11:27;;;;;;;12.60;4.28;;;10.40;99.90;;;;;;5055369;28;20200;-81
2022/02/09 12:14:00;;;;;;;11.02;4.25;;;10.50;99.90;;;;;;5055462;28;20170;-80
2022/02/09 12:19:25;;;;;;;7.70;3.67;;;10.80;99.90;;;;;;5054824;28;20202;-80
2022/02/09 12:22:10;;;;;;;12.07;3.70;;;10.90;99.90;;;;;;5055359;28;20596;-81
2022/02/09 12:24:37;;;;;;;8.85;3.35;;;11.00;99.90;;;;;;5055279;28;20174;-80
2022/02/09 12:27:06;;;;;;;9.52;4.15;;;11.00;99.90;;;;;;5055174;28;20655;-82
2022/02/09 12:29:43;;;;;;;17.50;3.75;;;10.90;99.90;;;;;;5054695;28;20800;-82
2022/02/09 12:32:15;;;;;;;11.23;3.63;;;10.70;99.90;;;;;;5053887;28;20591;-80
2022/02/09 12:34:55;;;;;;;13.57;3.75;;;10.60;99.90;;;;;;5053915;28;20178;-83
2022/02/09 12:37:21;;;;;;;12.10;3.95;;;10.60;99.90;;;;;;5054929;28;20170;-81
2022/02/09 12:39:51;;;;;;;8.80;2.63;;;10.70;99.90;;;;;;5054608;28;20281;-81
2022/02/09 12:42:19;;;;;;;12.43;3.45;;;10.80;99.90;;;;;;5055047;28;20429;-83
2022/02/09 12:44:57;;;;;;;7.70;3.25;;;10.90;99.90;;;;;;5054982;28;20228;-81
2022/02/09 12:47:29;;;;;;;15.35;3.60;;;10.90;99.90;;;;;;5054791;28;20247;-81
2022/02/09 12:49:54;;;;;;;11.38;3.63;;;10.90;99.90;;;;;;5053148;28;20206;-81
2022/02/09 12:52:26;;;;;;;6.10;3.37;;;10.90;99.90;;;;;;5053800;28;20174;-82
2022/02/09 12:55:12;;;;;;;7.28;3.28;;;10.90;99.90;;;;;;5053640;28;20182;-83
2022/02/09 12:57:50;;;;;;;6.75;2.55;;;10.90;99.90;;;;;;5039321;28;20182;-82
2022/02/09 13:00:38;;;;;;;10.95;2.53;;;11.00;99.90;;;;;;5034321;28;20186;-84
2022/02/09 13:03:06;;;;;;;7.05;2.72;;;11.00;99.90;;;;;;5034796;28;20179;-82
2022/02/09 13:05:40;;;;;;;12.85;3.42;;;11.00;99.90;;;;;;5034498;28;20177;-82
2022/02/09 13:08:06;;;;;;;5.60;2.85;;;11.00;99.90;;;;;;5034569;28;20199;-82
2022/02/09 13:10:35;;;;;;;8.10;3.10;;;10.90;99.90;;;;;;5034111;28;20309;-81
2022/02/09 13:13:09;;;;;;;9.85;3.03;;;11.10;99.90;;;;;;5043650;28;20206;-81
2022/02/09 13:16:30;;;;;;;9.18;3.40;;;11.10;99.90;;;;;;5054475;28;20270;-82
2022/02/09 13:18:37;;;;;;;12.43;2.80;;;11.10;99.90;;;;;;5042618;28;20225;-82
2022/02/09 14:05:46;;;;;;;9.02;3.90;;;11.10;99.90;;;;;;5053354;28;20158;-83
2022/02/09 14:07:23;;;;;;;10.95;4.43;;;11.20;99.90;;;;;;5045094;28;20194;-85
2022/02/09 14:12:43;;;;;;;8.57;3.63;;;11.20;99.90;;;;;;5053442;28;20177;-83
2022/02/09 14:15:47;;;;;;;6.90;3.40;;;11.20;99.90;;;;;;5053482;28;20170;-80
2022/02/09 14:18:33;;;;;;;7.40;3.45;;;11.10;99.90;;;;;;5053276;28;20658;-84
2022/02/09 14:32:10;;;;;;;7.45;3.00;;;11.30;99.90;;;;;;5052873;28;20247;-81
2022/02/09 14:35:03;;;;;;;12.85;3.47;;;11.30;99.90;;;;;;5057416;28;20234;-84
2022/02/09 14:54:40;;;;;;;17.20;3.70;;;11.70;99.90;;;;;;5057056;28;20606;-82
2022/02/09 14:59:05;;;;;;;7.82;2.70;;;11.90;99.90;;;;;;5056816;28;20742;-83
2022/02/09 15:01:42;;;;;;;11.52;2.45;;;12.00;99.90;;;;;;5056823;28;20193;-82
2022/02/09 15:05:11;;;;;;;6.95;2.40;;;12.10;99.90;;;;;;5055513;28;20557;-82
2022/02/09 15:09:43;;;;;;;9.15;2.53;;;12.10;99.90;;;;;;5056199;28;20226;-81
2022/02/09 15:12:27;;;;;;;10.57;2.40;;;11.90;99.90;;;;;;5040875;28;20186;-83
2022/02/09 15:22:38;;;;;;;6.78;2.58;;;12.30;99.90;;;;;;5056447;28;20182;-85
2022/02/09 15:25:13;;;;;;;8.65;2.63;;;12.30;99.90;;;;;;5056337;28;20209;-80
2022/02/09 15:27:39;;;;;;;8.60;2.15;;;12.50;99.90;;;;;;5056479;28;20205;-82
2022/02/09 15:30:07;;;;;;;5.97;2.23;;;12.60;99.90;;;;;;5056106;28;20225;-84
2022/02/09 15:32:46;;;;;;;9.45;2.80;;;12.40;99.90;;;;;;5055964;28;20417;-82
2022/02/09 15:35:22;;;;;;;6.07;2.70;;;12.40;99.90;;;;;;5056145;28;20169;-80
2022/02/09 15:40:30;;;;;;;7.40;2.80;;;12.40;99.90;;;;;;5055638;28;20194;-83
2022/02/09 15:43:18;;;;;;;4.10;2.50;;;12.40;99.90;;;;;;5055174;28;20160;-84
2022/02/09 15:59:42;;;;;;;5.97;3.25;;;12.10;99.90;;;;;;5042185;28;20210;-83
2022/02/09 16:10:34;;;;;;;7.00;2.65;;;11.80;99.90;;;;;;5055194;28;20220;-83
2022/02/09 16:18:55;;;;;;;3.45;2.15;;;11.50;99.90;;;;;;5055901;28;20243;-84
2022/02/09 16:23:48;;;;;;;6.00;2.17;;;11.40;99.90;;;;;;5055162;28;20182;-81
2022/02/09 16:44:39;;;;;;;9.52;3.92;;;10.50;99.90;;;;;;5054295;28;20217;-84
2022/02/09 16:50:14;;;;;;;8.73;2.50;;;10.40;99.90;;;;;;5031370;28;20224;-81
2022/02/09 16:52:53;;;;;;;7.28;3.13;;;10.30;99.90;;;;;;5054770;28;20178;-84
2022/02/09 16:55:49;;;;;;;8.25;3.40;;;10.10;99.90;;;;;;5053473;28;20166;-82
2022/02/09 17:19:34;;;;;;;5.35;2.55;;;9.20;99.90;;;;;;5053627;28;20205;-83
2022/02/09 17:22:00;;;;;;;8.05;3.60;;;9.20;99.90;;;;;;5052919;28;20173;-83
2022/02/09 17:24:25;;;;;;;9.05;5.97;;;9.10;99.90;;;;;;5053945;28;20188;-84
2022/02/09 17:26:53;;;;;;;15.40;8.40;;;9.00;99.90;;;;;;5053947;28;20178;-83
2022/02/09 17:29:23;;;;;;;47.67;23.30;;;8.90;99.90;;;;;;5035744;28;20637;-83
2022/02/09 17:55:58;;;;;;;15.55;5.82;;;8.10;99.90;;;;;;5053552;28;20205;-84
2022/02/09 17:58:28;;;;;;;10.98;4.70;;;8.10;99.90;;;;;;5053534;28;20184;-81
2022/02/09 18:00:55;;;;;;;14.43;3.90;;;8.00;99.90;;;;;;5053198;28;20212;-84
2022/02/09 18:03:21;;;;;;;6.07;4.25;;;7.90;99.90;;;;;;5053309;28;20182;-84
2022/02/09 18:05:49;;;;;;;10.10;3.90;;;7.80;99.90;;;;;;5052979;28;20635;-81
2022/02/09 18:08:31;;;;;;;8.05;5.03;;;7.70;99.90;;;;;;5053082;28;20212;-83
2022/02/09 18:27:53;;;;;;;7.57;6.15;;;7.20;99.90;;;;;;5053197;28;20303;-84
2022/02/09 18:42:58;;;;;;;9.18;5.28;;;6.80;99.90;;;;;;5052088;28;20671;-83
2022/02/09 18:45:48;;;;;;;9.57;4.32;;;6.80;99.90;;;;;;5052847;28;20185;-80
2022/02/09 18:48:36;;;;;;;18.08;11.02;;;6.70;99.90;;;;;;5051825;28;20202;-81
2022/02/09 19:02:20;;;;;;;14.27;6.93;;;6.40;99.90;;;;;;5052831;28;20537;-83
2022/02/09 19:04:49;;;;;;;11.00;6.70;;;6.40;99.90;;;;;;5051765;28;20163;-80
2022/02/09 19:18:41;;;;;;;13.75;7.60;;;6.10;99.90;;;;;;5031334;28;20659;-78
2022/02/09 19:48:14;;;;;;;13.33;7.47;;;5.40;99.90;;;;;;5051640;28;20219;-81
2022/02/09 19:51:03;;;;;;;17.50;6.90;;;5.40;99.90;;;;;;5037894;28;20203;-79
2022/02/09 19:53:45;;;;;;;10.77;6.65;;;5.30;99.90;;;;;;5040843;28;20248;-80
2022/02/09 19:56:16;;;;;;;16.27;9.38;;;5.30;99.90;;;;;;5045330;28;20166;-80
2022/02/09 20:01:18;;;;;;;53.90;25.30;;;5.30;99.90;;;;;;5055601;28;20558;-81
2022/02/09 20:03:44;;;;;;;52.95;22.92;;;5.30;99.90;;;;;;5055193;28;20191;-80
2022/02/09 20:06:10;;;;;;;52.37;25.80;;;5.30;99.90;;;;;;5049442;28;20540;-81
2022/02/09 20:08:37;;;;;;;48.40;23.17;;;5.40;99.90;;;;;;5054841;28;20205;-82
2022/02/09 20:11:09;;;;;;;43.22;19.85;;;5.40;99.90;;;;;;5055124;28;20579;-81
2022/02/09 20:13:35;;;;;;;53.28;28.05;;;5.40;99.90;;;;;;5055325;28;20189;-79
2022/02/09 20:16:01;;;;;;;79.47;37.25;;;5.50;99.90;;;;;;5055404;28;20178;-81
2022/02/09 20:18:28;;;;;;;47.67;26.57;;;5.50;99.90;;;;;;5053907;28;20196;-81
2022/02/09 20:20:56;;;;;;;33.20;16.50;;;5.60;99.90;;;;;;5054786;28;20231;-80
2022/02/09 20:23:23;;;;;;;27.67;17.20;;;5.60;99.90;;;;;;5053925;28;20181;-80
2022/02/09 20:25:48;;;;;;;33.03;16.15;;;5.60;99.90;;;;;;5055254;28;20227;-78
2022/02/09 20:28:15;;;;;;;30.80;16.30;;;5.70;99.90;;;;;;5055081;28;20206;-79
2022/02/09 20:30:45;;;;;;;35.00;17.50;;;5.70;99.90;;;;;;5054936;28;20215;-81
2022/02/09 20:33:16;;;;;;;39.85;20.33;;;5.70;99.90;;;;;;5055103;28;20177;-80
2022/02/09 20:35:42;;;;;;;52.65;27.20;;;5.80;99.90;;;;;;5055190;28;20162;-80
2022/02/09 20:38:15;;;;;;;54.97;28.92;;;5.80;99.90;;;;;;5053789;28;20185;-81
2022/02/09 20:40:58;;;;;;;71.68;33.38;;;5.80;99.90;;;;;;5054614;28;20198;-79
2022/02/09 20:43:25;;;;;;;47.65;25.02;;;5.80;99.90;;;;;;5055072;28;20179;-80
2022/02/09 20:45:55;;;;;;;30.05;17.55;;;5.80;99.90;;;;;;5053438;28;20272;-80
2022/02/09 20:48:26;;;;;;;24.58;13.05;;;5.80;99.90;;;;;;5054451;28;20201;-81
2022/02/09 20:50:53;;;;;;;13.85;8.80;;;5.70;99.90;;;;;;5054405;28;20293;-80
2022/02/09 20:53:20;;;;;;;16.65;9.38;;;5.70;99.90;;;;;;5053393;28;20182;-82
2022/02/09 20:55:47;;;;;;;18.35;11.48;;;5.70;99.90;;;;;;5054695;28;20170;-80
2022/02/09 20:58:13;;;;;;;15.23;10.05;;;5.80;99.90;;;;;;5054629;28;20192;-81
2022/02/09 21:11:04;;;;;;;19.58;12.10;;;6.00;99.90;;;;;;5053142;28;20263;-79
2022/02/09 21:19:05;;;;;;;15.02;9.45;;;6.00;99.90;;;;;;5054051;28;20685;-79
2022/02/09 21:22:10;;;;;;;18.90;10.85;;;5.90;99.90;;;;;;5053810;28;20666;-81
2022/02/09 21:25:00;;;;;;;24.30;10.32;;;5.90;99.90;;;;;;5053765;28;20266;-80
2022/02/09 22:23:20;;;;;;;15.57;10.30;;;4.50;99.90;;;;;;5049427;28;20176;-80
2022/02/09 22:28:31;;;;;;;18.67;9.32;;;4.50;99.90;;;;;;5033193;28;20205;-80
2022/02/09 22:50:14;;;;;;;15.90;9.90;;;4.10;99.90;;;;;;5032522;28;20260;-81
2022/02/09 22:55:25;;;;;;;17.92;9.82;;;4.00;99.90;;;;;;5036882;28;20175;-82
2022/02/09 22:57:57;;;;;;;18.25;10.40;;;3.90;99.90;;;;;;5037144;28;20166;-81
2022/02/09 23:03:52;;;;;;;16.67;10.25;;;3.80;99.90;;;;;;5036261;28;20190;-82
